Stations météo

réclame
Mon MeteoGroup
Zumaya, Espagne (8026): Température de l'air & dewpoint: 16.06.2018 09:00:00 - 22.06.2018 09:00:00 (CEST)Zumaya, Espagne (8026): Vitesse du vent & gusts: 16.06.2018 09:00:00 - 22.06.2018 09:00:00 (CEST)Zumaya, Espagne (8026): Direction du vent: 16.06.2018 09:00:00 - 22.06.2018 09:00:00 (CEST)Zumaya, Espagne (8026): Quantités de précipitations: 16.06.2018 09:00:00 - 22.06.2018 09:00:00 (CEST)
Date & Time tt [°C] td [°C] ff [km/h] ff [knt] fx [km/h] fx [knt] dd rr [mm]
22.06.2018 09:00:00 20,1 18,4 11 6 21 11 WNW 0,0
22.06.2018 08:00:00 20,0 19,2 9 5 22 12 WNW -
22.06.2018 07:00:00 20,0 19,3 12 7 19 11 NW 0,0
22.06.2018 06:00:00 20,0 19,3 15 8 25 14 NW 0,0
22.06.2018 05:00:00 19,9 19,3 19 10 31 17 NW 0,0
22.06.2018 04:00:00 20,1 19,4 22 12 32 17 NW 0,0
22.06.2018 03:00:00 20,1 19,4 23 13 31 17 NW 0,0
22.06.2018 02:00:00 20,3 19,6 16 9 24 13 NW -
22.06.2018 01:00:00 20,0 19,3 11 6 30 16 WNW 0,0
22.06.2018 00:00:00 20,2 19,6 24 13 35 19 NW 0,0
21.06.2018 23:00:00 20,4 19,6 16 8 36 19 WNW 0,0
21.06.2018 22:00:00 20,5 19,5 19 10 32 18 WNW 0,0
21.06.2018 21:00:00 20,5 19,3 20 11 30 16 NW 0,0
21.06.2018 20:00:00 20,6 18,7 14 7 27 14 NW -
21.06.2018 19:00:00 20,9 18,3 8 4 17 9 NW 0,0
21.06.2018 18:00:00 21,9 19,4 9 5 17 9 NW 0,0
21.06.2018 17:00:00 21,4 18,8 10 5 21 11 NW 0,0
21.06.2018 16:00:00 22,1 19,1 16 9 23 12 NW 0,0
21.06.2018 15:00:00 22,3 19,5 17 9 28 15 NW 0,0
21.06.2018 14:00:00 22,9 19,6 17 9 26 14 NW -
21.06.2018 13:00:00 22,9 20,1 17 9 22 12 NW 0,0
21.06.2018 12:00:00 21,6 19,0 15 8 19 10 NNW 0,0
21.06.2018 11:00:00 21,8 19,1 10 5 14 8 NE 0,0
21.06.2018 10:00:00 21,2 19,7 2 1 9 5 NE 0,0
21.06.2018 09:00:00 20,4 19,8 0 0 10 5 N 0,0
21.06.2018 08:00:00 19,2 18,5 7 4 13 7 S -
21.06.2018 07:00:00 18,7 18,1 6 3 9 5 SSW 0,0
21.06.2018 06:00:00 18,5 17,9 6 3 8 5 S 0,0
21.06.2018 05:00:00 18,5 17,9 5 3 7 4 S 0,0
21.06.2018 04:00:00 19,0 18,0 0 0 0 0 N 0,0
21.06.2018 03:00:00 19,7 18,4 0 0 7 4 N 0,0
21.06.2018 02:00:00 20,2 18,7 1 0 7 4 SSW -
21.06.2018 01:00:00 20,3 18,8 0 0 0 0 N 0,0
21.06.2018 00:00:00 20,1 18,6 0 0 10 5 N 0,0
20.06.2018 23:00:00 20,2 18,7 3 1 14 8 NW 0,0
20.06.2018 22:00:00 20,2 18,3 6 3 14 7 WNW 0,0
20.06.2018 21:00:00 20,6 18,5 6 3 16 8 NW 0,0
20.06.2018 20:00:00 21,1 18,3 9 5 16 9 NW -
20.06.2018 19:00:00 22,4 18,5 10 6 16 9 NW 0,0
20.06.2018 18:00:00 23,9 19,4 11 6 17 9 NW 0,0
20.06.2018 17:00:00 23,8 19,3 12 7 18 10 NW 0,0
20.06.2018 16:00:00 24,2 20,1 13 7 18 10 NW 0,0
20.06.2018 15:00:00 23,4 19,8 8 4 14 8 N 0,0
20.06.2018 14:00:00 22,7 19,3 9 5 11 6 NW -
20.06.2018 13:00:00 22,2 19,0 6 4 10 5 N 0,0
20.06.2018 12:00:00 21,3 18,1 8 4 14 8 NNE 0,0
20.06.2018 11:00:00 21,0 18,5 9 5 12 7 NE 0,0
20.06.2018 10:00:00 19,8 19,1 0 0 0 0 N 0,0
20.06.2018 09:00:00 18,6 18,3 0 0 12 7 N 0,0
20.06.2018 08:00:00 16,3 16,0 9 5 13 7 S -
20.06.2018 07:00:00 15,7 15,5 9 5 12 7 S 0,0
20.06.2018 06:00:00 15,6 15,3 10 5 13 7 S 0,0
20.06.2018 05:00:00 15,6 15,3 8 4 13 7 S 0,0
20.06.2018 04:00:00 15,9 15,4 10 6 13 7 SSW 0,0
20.06.2018 03:00:00 16,3 15,7 8 4 13 7 S 0,0
20.06.2018 02:00:00 16,6 16,0 8 4 12 6 S -
20.06.2018 01:00:00 17,2 16,2 8 4 10 6 S 0,0
20.06.2018 00:00:00 17,8 16,5 0 0 0 0 N 0,0
19.06.2018 23:00:00 18,6 16,7 0 0 0 0 N 0,0
19.06.2018 22:00:00 19,6 17,2 0 0 0 0 N 0,0
19.06.2018 21:00:00 19,7 17,1 0 0 9 5 N 0,0
19.06.2018 20:00:00 20,0 16,8 0 0 10 5 N -
19.06.2018 19:00:00 20,5 16,6 0 0 0 0 N 0,0
19.06.2018 18:00:00 20,7 16,3 0 0 10 5 N 0,0
19.06.2018 17:00:00 21,2 16,6 4 2 10 5 WNW 0,0
19.06.2018 16:00:00 20,9 16,7 1 0 6 3 NW 0,0
19.06.2018 15:00:00 19,9 16,6 4 2 13 7 NNE 0,0
19.06.2018 14:00:00 20,0 16,8 8 4 13 7 NNE -
19.06.2018 13:00:00 19,8 17,2 0 0 10 6 N 0,0
19.06.2018 12:00:00 19,5 18,2 5 3 12 6 NNE 0,0
19.06.2018 11:00:00 18,4 17,8 0 0 0 0 N 0,0
19.06.2018 10:00:00 17,7 17,1 0 0 15 8 S 0,8
19.06.2018 09:00:00 17,2 16,6 3 2 10 6 W 0,2
19.06.2018 08:00:00 16,9 16,2 1 0 14 8 SW -
19.06.2018 07:00:00 16,7 16,0 3 2 8 4 SW 0,0
19.06.2018 06:00:00 16,8 16,0 4 2 9 5 S 0,0
19.06.2018 05:00:00 16,8 15,8 1 1 10 5 S 0,0
19.06.2018 04:00:00 17,0 15,7 0 0 11 6 N 0,0
19.06.2018 03:00:00 17,1 15,4 5 3 12 6 S 0,0
19.06.2018 02:00:00 17,6 15,3 1 1 22 12 SW -
19.06.2018 01:00:00 17,2 15,5 11 6 24 13 NW 0,0
19.06.2018 00:00:00 17,3 16,6 10 6 20 11 N 0,1
18.06.2018 23:00:00 17,8 17,1 0 0 11 6 S 0,3
18.06.2018 22:00:00 17,8 17,1 5 3 16 9 W 0,0
18.06.2018 21:00:00 18,2 17,5 8 4 11 6 NNW 0,0
18.06.2018 20:00:00 18,3 17,6 8 4 24 13 N -
18.06.2018 19:00:00 18,3 17,3 13 7 29 16 N 0,0
18.06.2018 18:00:00 19,5 17,5 14 8 31 17 WNW 0,0
18.06.2018 17:00:00 19,8 17,5 22 12 32 17 NW 0,0
18.06.2018 16:00:00 20,0 17,8 22 12 32 17 NW 0,0
18.06.2018 15:00:00 20,0 17,8 16 9 24 13 NW 0,1
18.06.2018 14:00:00 20,2 17,6 18 10 26 14 NW -
18.06.2018 13:00:00 20,8 17,1 6 3 12 6 NNW 0,0
18.06.2018 12:00:00 20,0 17,9 0 0 10 5 N 0,0
18.06.2018 11:00:00 18,0 16,6 6 3 11 6 SSE 0,1
18.06.2018 10:00:00 17,2 15,7 1 1 10 5 SSW 0,0
18.06.2018 09:00:00 16,4 14,9 4 2 11 6 S 0,0
18.06.2018 08:00:00 15,6 14,1 8 4 13 7 S -
18.06.2018 07:00:00 15,3 14,0 9 5 13 7 SSW 0,0
18.06.2018 06:00:00 14,9 13,7 9 5 12 7 SSW 0,0
18.06.2018 05:00:00 14,8 13,7 9 5 14 7 S 0,0
18.06.2018 04:00:00 14,5 13,4 10 5 15 8 S 0,0
18.06.2018 03:00:00 14,2 13,1 11 6 15 8 S 0,0
18.06.2018 02:00:00 14,3 13,1 9 5 14 8 S -
18.06.2018 01:00:00 14,9 13,5 9 5 13 7 S 0,0
18.06.2018 00:00:00 15,5 13,6 8 5 11 6 S 0,0
17.06.2018 23:00:00 16,8 13,4 8 5 10 5 S 0,0
17.06.2018 22:00:00 18,6 13,1 0 0 0 0 N 0,0
17.06.2018 21:00:00 20,8 13,5 0 0 5 3 N 0,0
17.06.2018 20:00:00 21,8 14,7 3 1 9 5 NNW -
17.06.2018 19:00:00 22,1 15,2 4 2 14 8 NNW 0,0
17.06.2018 18:00:00 22,0 15,3 10 5 15 8 N 0,0
17.06.2018 17:00:00 21,1 14,5 10 5 16 8 N 0,0
17.06.2018 16:00:00 22,1 16,1 8 5 16 9 N 0,0
17.06.2018 15:00:00 20,9 15,4 13 7 24 13 NNW 0,0
17.06.2018 14:00:00 20,6 15,3 21 11 25 14 NNW -
17.06.2018 13:00:00 21,9 16,6 15 8 22 12 NW 0,0
17.06.2018 12:00:00 20,5 15,7 8 4 14 7 NW 0,0
17.06.2018 11:00:00 19,3 15,3 8 4 16 8 WNW 0,0
17.06.2018 10:00:00 17,7 16,6 3 2 11 6 S 0,0
17.06.2018 09:00:00 16,7 15,7 7 4 20 11 SSE 0,1
17.06.2018 08:00:00 15,7 14,7 2 1 15 8 SSW -
17.06.2018 07:00:00 15,6 14,6 7 4 13 7 S 0,0
17.06.2018 06:00:00 15,3 14,3 6 3 11 6 S 0,0
17.06.2018 05:00:00 15,3 14,3 6 4 - - S -
17.06.2018 04:00:00 15,1 13,9 8 4 12 7 S 0,0
17.06.2018 03:00:00 15,5 14,2 6 3 11 6 S 0,0
17.06.2018 02:00:00 16,0 14,5 6 3 11 6 S -
17.06.2018 01:00:00 16,4 14,4 6 4 9 5 S 0,0
17.06.2018 00:00:00 17,2 14,1 0 0 9 5 N 0,0
16.06.2018 23:00:00 17,6 13,6 6 4 16 8 NNW 0,0
16.06.2018 22:00:00 18,2 13,7 12 6 19 11 NNW 0,0
16.06.2018 21:00:00 19,0 13,4 3 2 11 6 NNE 0,0
16.06.2018 20:00:00 19,2 13,2 6 4 15 8 NNE -
16.06.2018 19:00:00 20,5 13,7 8 4 18 10 NE 0,0
16.06.2018 18:00:00 20,3 13,5 11 6 19 11 NNE 0,0
16.06.2018 17:00:00 21,0 14,1 7 4 13 7 NNE 0,0
16.06.2018 16:00:00 20,8 14,2 8 4 14 7 NNE 0,1
16.06.2018 15:00:00 21,1 15,2 4 2 9 5 NNE 0,0
16.06.2018 14:00:00 20,2 14,5 3 2 11 6 N -
16.06.2018 13:00:00 19,6 15,1 4 2 9 5 N 0,0
16.06.2018 12:00:00 18,4 17,1 0 0 8 4 N 0,0
16.06.2018 11:00:00 17,7 17,2 0 0 0 0 N 0,0
16.06.2018 10:00:00 16,6 16,3 0 0 11 6 N 1,3
16.06.2018 09:00:00 16,4 16,0 5 3 18 10 WNW 0,2

tt = Température de l'air
td = dewpoint
ff = Vitesse du vent
fx = gusts
dd = Direction du vent
rr = Quantités de précipitations

stations d'obs. à proximité